Dobbin, Texas
Current Conditions -  °F | °C
As of 2:53 PM on Saturday 22 Nov 2014 (Local Time) from KCXO Reporting Station
Light Rain Light Rain  
Wind Chill: 19°   Ceiling: 1700
Heat Index: 19°   Visibility: 10mi
Dew Point: 17°   Wind: 10mph
Humidity: 87%   Direction: 100°E
Pressure: 29.89"   Gusts: NA
Location:  30.37°N, 95.78°W
Report Text: KCXO 222053Z 10009KT 10SM -RA BKN017 OVC065 19/17 A2989 RMK AO2 RAB30 SLP119 P0000 60000 T01890167 56049
Loading
Personal Weather Stations






























Interactive Weather Map New forecast layout! Learn more

10-Day Weather Forecast

Advertisements
Track Severe Weather on mobile